sensor_id;sensor_type;location;lat;lon;timestamp;temperature;humidity
8130;DHT22;4106;52.532;13.408;2022-07-29T00:00:16;15.80;60.60
8130;DHT22;4106;52.532;13.408;2022-07-29T00:02:44;15.70;61.00
8130;DHT22;4106;52.532;13.408;2022-07-29T00:05:12;15.70;61.10
8130;DHT22;4106;52.532;13.408;2022-07-29T00:07:39;15.70;62.00
8130;DHT22;4106;52.532;13.408;2022-07-29T00:10:08;15.60;63.10
8130;DHT22;4106;52.532;13.408;2022-07-29T00:12:35;15.60;63.10
8130;DHT22;4106;52.532;13.408;2022-07-29T00:15:02;15.60;63.10
8130;DHT22;4106;52.532;13.408;2022-07-29T00:17:30;15.60;63.10
8130;DHT22;4106;52.532;13.408;2022-07-29T00:19:58;15.60;64.10
8130;DHT22;4106;52.532;13.408;2022-07-29T00:22:26;15.50;63.90
8130;DHT22;4106;52.532;13.408;2022-07-29T00:24:53;15.60;64.60
8130;DHT22;4106;52.532;13.408;2022-07-29T00:27:20;15.50;64.80
8130;DHT22;4106;52.532;13.408;2022-07-29T00:29:47;15.50;65.20
8130;DHT22;4106;52.532;13.408;2022-07-29T00:32:15;15.50;65.50
8130;DHT22;4106;52.532;13.408;2022-07-29T00:34:42;15.50;66.40
8130;DHT22;4106;52.532;13.408;2022-07-29T00:37:15;15.40;66.50
8130;DHT22;4106;52.532;13.408;2022-07-29T00:39:42;15.40;67.30
8130;DHT22;4106;52.532;13.408;2022-07-29T00:42:10;15.40;67.40
8130;DHT22;4106;52.532;13.408;2022-07-29T00:44:38;15.40;68.10
8130;DHT22;4106;52.532;13.408;2022-07-29T00:47:05;15.40;68.30
8130;DHT22;4106;52.532;13.408;2022-07-29T00:49:32;15.30;69.10
8130;DHT22;4106;52.532;13.408;2022-07-29T00:52:02;15.30;69.50
8130;DHT22;4106;52.532;13.408;2022-07-29T00:54:29;15.20;70.60
8130;DHT22;4106;52.532;13.408;2022-07-29T00:56:58;15.20;70.60
8130;DHT22;4106;52.532;13.408;2022-07-29T00:59:26;15.20;70.70
8130;DHT22;4106;52.532;13.408;2022-07-29T01:01:54;15.20;70.70
8130;DHT22;4106;52.532;13.408;2022-07-29T01:04:21;15.10;71.30
8130;DHT22;4106;52.532;13.408;2022-07-29T01:06:48;15.10;71.70
8130;DHT22;4106;52.532;13.408;2022-07-29T01:09:15;15.10;72.40
8130;DHT22;4106;52.532;13.408;2022-07-29T01:11:43;15.10;72.20
8130;DHT22;4106;52.532;13.408;2022-07-29T01:14:10;15.10;72.50
8130;DHT22;4106;52.532;13.408;2022-07-29T01:16:58;15.00;73.20
8130;DHT22;4106;52.532;13.408;2022-07-29T01:21:57;15.00;73.70
8130;DHT22;4106;52.532;13.408;2022-07-29T01:27:41;15.00;74.80
8130;DHT22;4106;52.532;13.408;2022-07-29T01:30:06;15.00;74.80
8130;DHT22;4106;52.532;13.408;2022-07-29T01:32:36;15.00;75.40
8130;DHT22;4106;52.532;13.408;2022-07-29T01:35:08;15.00;75.30
8130;DHT22;4106;52.532;13.408;2022-07-29T01:37:48;14.90;75.10
8130;DHT22;4106;52.532;13.408;2022-07-29T01:40:19;14.90;75.40
8130;DHT22;4106;52.532;13.408;2022-07-29T01:42:44;14.90;76.00
8130;DHT22;4106;52.532;13.408;2022-07-29T01:45:14;14.90;76.10
8130;DHT22;4106;52.532;13.408;2022-07-29T01:47:42;14.90;76.60
8130;DHT22;4106;52.532;13.408;2022-07-29T01:50:08;14.90;76.80
8130;DHT22;4106;52.532;13.408;2022-07-29T01:52:36;14.90;77.10
8130;DHT22;4106;52.532;13.408;2022-07-29T01:55:07;14.80;77.80
8130;DHT22;4106;52.532;13.408;2022-07-29T01:57:32;14.80;77.70
8130;DHT22;4106;52.532;13.408;2022-07-29T01:59:59;14.80;77.90
8130;DHT22;4106;52.532;13.408;2022-07-29T02:02:27;14.80;78.50
8130;DHT22;4106;52.532;13.408;2022-07-29T02:04:54;14.70;79.40
8130;DHT22;4106;52.532;13.408;2022-07-29T02:07:23;14.70;79.60
8130;DHT22;4106;52.532;13.408;2022-07-29T02:09:50;14.60;80.00
8130;DHT22;4106;52.532;13.408;2022-07-29T02:12:18;14.60;80.20
8130;DHT22;4106;52.532;13.408;2022-07-29T02:14:47;14.60;80.20
8130;DHT22;4106;52.532;13.408;2022-07-29T02:17:13;14.60;80.50
8130;DHT22;4106;52.532;13.408;2022-07-29T02:19:40;14.60;80.90
8130;DHT22;4106;52.532;13.408;2022-07-29T02:22:07;14.50;81.00
8130;DHT22;4106;52.532;13.408;2022-07-29T02:24:35;14.50;81.60
8130;DHT22;4106;52.532;13.408;2022-07-29T02:27:02;14.50;82.30
8130;DHT22;4106;52.532;13.408;2022-07-29T02:29:30;14.40;82.40
8130;DHT22;4106;52.532;13.408;2022-07-29T02:31:58;14.50;82.80
8130;DHT22;4106;52.532;13.408;2022-07-29T02:34:26;14.50;82.90
8130;DHT22;4106;52.532;13.408;2022-07-29T02:36:54;14.50;83.30
8130;DHT22;4106;52.532;13.408;2022-07-29T02:39:22;14.50;82.90
8130;DHT22;4106;52.532;13.408;2022-07-29T02:41:50;14.50;82.90
8130;DHT22;4106;52.532;13.408;2022-07-29T02:44:17;14.50;83.30
8130;DHT22;4106;52.532;13.408;2022-07-29T02:46:49;14.50;83.20
8130;DHT22;4106;52.532;13.408;2022-07-29T02:49:30;14.60;83.00
8130;DHT22;4106;52.532;13.408;2022-07-29T02:51:57;14.60;82.90
8130;DHT22;4106;52.532;13.408;2022-07-29T02:57:06;14.70;83.10
8130;DHT22;4106;52.532;13.408;2022-07-29T02:59:32;14.70;82.60
8130;DHT22;4106;52.532;13.408;2022-07-29T03:01:59;14.80;82.40
8130;DHT22;4106;52.532;13.408;2022-07-29T03:04:27;14.80;82.20
8130;DHT22;4106;52.532;13.408;2022-07-29T03:06:55;14.80;82.00
8130;DHT22;4106;52.532;13.408;2022-07-29T03:09:23;14.90;82.10
8130;DHT22;4106;52.532;13.408;2022-07-29T03:11:50;14.90;82.10
8130;DHT22;4106;52.532;13.408;2022-07-29T03:14:18;14.90;81.90
8130;DHT22;4106;52.532;13.408;2022-07-29T03:16:45;15.00;81.50
8130;DHT22;4106;52.532;13.408;2022-07-29T03:19:12;15.00;81.60
8130;DHT22;4106;52.532;13.408;2022-07-29T03:21:39;15.00;81.50
8130;DHT22;4106;52.532;13.408;2022-07-29T03:24:06;15.00;81.20
8130;DHT22;4106;52.532;13.408;2022-07-29T03:26:33;15.00;80.90
8130;DHT22;4106;52.532;13.408;2022-07-29T03:29:00;15.00;81.10
8130;DHT22;4106;52.532;13.408;2022-07-29T03:31:28;15.00;81.20
8130;DHT22;4106;52.532;13.408;2022-07-29T03:33:56;15.00;81.20
8130;DHT22;4106;52.532;13.408;2022-07-29T03:36:24;15.00;81.00
8130;DHT22;4106;52.532;13.408;2022-07-29T03:38:52;15.00;80.90
8130;DHT22;4106;52.532;13.408;2022-07-29T03:41:20;15.10;80.60
8130;DHT22;4106;52.532;13.408;2022-07-29T03:43:48;15.10;80.30
8130;DHT22;4106;52.532;13.408;2022-07-29T03:46:15;15.10;79.90
8130;DHT22;4106;52.532;13.408;2022-07-29T03:48:42;15.10;79.80
8130;DHT22;4106;52.532;13.408;2022-07-29T03:51:09;15.10;79.40
8130;DHT22;4106;52.532;13.408;2022-07-29T03:53:36;15.20;79.60
8130;DHT22;4106;52.532;13.408;2022-07-29T03:56:04;15.10;79.60
8130;DHT22;4106;52.532;13.408;2022-07-29T03:58:32;15.20;78.90
8130;DHT22;4106;52.532;13.408;2022-07-29T04:00:59;15.20;78.90
8130;DHT22;4106;52.532;13.408;2022-07-29T04:03:27;15.20;79.10
8130;DHT22;4106;52.532;13.408;2022-07-29T04:06:03;15.30;78.40
8130;DHT22;4106;52.532;13.408;2022-07-29T04:08:29;15.30;78.40
8130;DHT22;4106;52.532;13.408;2022-07-29T04:10:56;15.30;78.60
8130;DHT22;4106;52.532;13.408;2022-07-29T04:13:23;15.40;78.50
8130;DHT22;4106;52.532;13.408;2022-07-29T04:15:50;15.40;77.90
8130;DHT22;4106;52.532;13.408;2022-07-29T04:18:18;15.40;78.20
8130;DHT22;4106;52.532;13.408;2022-07-29T04:20:45;15.50;78.30
8130;DHT22;4106;52.532;13.408;2022-07-29T04:23:12;15.50;77.70
8130;DHT22;4106;52.532;13.408;2022-07-29T04:25:40;15.50;77.50
8130;DHT22;4106;52.532;13.408;2022-07-29T04:28:07;15.50;77.80
8130;DHT22;4106;52.532;13.408;2022-07-29T04:30:35;15.50;76.70
8130;DHT22;4106;52.532;13.408;2022-07-29T04:33:02;15.50;76.70
8130;DHT22;4106;52.532;13.408;2022-07-29T04:35:30;15.70;77.70
8130;DHT22;4106;52.532;13.408;2022-07-29T04:37:57;15.70;76.00
8130;DHT22;4106;52.532;13.408;2022-07-29T04:40:25;15.70;76.20
8130;DHT22;4106;52.532;13.408;2022-07-29T04:42:53;15.80;76.60
8130;DHT22;4106;52.532;13.408;2022-07-29T04:45:21;15.90;75.00
8130;DHT22;4106;52.532;13.408;2022-07-29T04:47:49;15.90;75.00
8130;DHT22;4106;52.532;13.408;2022-07-29T04:50:16;16.00;74.10
8130;DHT22;4106;52.532;13.408;2022-07-29T04:52:43;16.10;74.70
8130;DHT22;4106;52.532;13.408;2022-07-29T04:55:10;16.20;74.10
8130;DHT22;4106;52.532;13.408;2022-07-29T04:57:38;16.30;72.90
8130;DHT22;4106;52.532;13.408;2022-07-29T05:00:08;16.30;73.30
8130;DHT22;4106;52.532;13.408;2022-07-29T05:02:35;16.30;73.30
8130;DHT22;4106;52.532;13.408;2022-07-29T05:05:03;16.40;72.70
8130;DHT22;4106;52.532;13.408;2022-07-29T05:07:30;16.50;71.80
8130;DHT22;4106;52.532;13.408;2022-07-29T05:10:00;16.60;71.60
8130;DHT22;4106;52.532;13.408;2022-07-29T05:12:27;16.80;70.70
8130;DHT22;4106;52.532;13.408;2022-07-29T05:14:55;16.90;69.60
8130;DHT22;4106;52.532;13.408;2022-07-29T05:17:22;17.10;70.10
8130;DHT22;4106;52.532;13.408;2022-07-29T05:19:49;17.30;68.20
8130;DHT22;4106;52.532;13.408;2022-07-29T05:22:18;17.50;68.20
8130;DHT22;4106;52.532;13.408;2022-07-29T05:24:44;17.60;67.60
8130;DHT22;4106;52.532;13.408;2022-07-29T05:27:12;17.70;66.90
8130;DHT22;4106;52.532;13.408;2022-07-29T05:29:39;17.70;67.10
8130;DHT22;4106;52.532;13.408;2022-07-29T05:32:07;17.80;65.20
8130;DHT22;4106;52.532;13.408;2022-07-29T05:34:35;17.90;65.00
8130;DHT22;4106;52.532;13.408;2022-07-29T05:37:03;18.00;65.80
8130;DHT22;4106;52.532;13.408;2022-07-29T05:39:31;18.00;64.00
8130;DHT22;4106;52.532;13.408;2022-07-29T05:41:58;18.00;63.90
8130;DHT22;4106;52.532;13.408;2022-07-29T05:44:25;18.00;64.40
8130;DHT22;4106;52.532;13.408;2022-07-29T05:46:52;18.00;64.50
8130;DHT22;4106;52.532;13.408;2022-07-29T05:49:19;17.90;64.70
8130;DHT22;4106;52.532;13.408;2022-07-29T05:51:47;18.00;64.30
8130;DHT22;4106;52.532;13.408;2022-07-29T05:54:14;18.00;65.80
8130;DHT22;4106;52.532;13.408;2022-07-29T05:56:41;18.00;64.10
8130;DHT22;4106;52.532;13.408;2022-07-29T05:59:08;18.00;63.60
8130;DHT22;4106;52.532;13.408;2022-07-29T06:01:35;18.10;64.00
8130;DHT22;4106;52.532;13.408;2022-07-29T06:04:03;18.20;64.50
8130;DHT22;4106;52.532;13.408;2022-07-29T06:06:30;18.30;63.90
8130;DHT22;4106;52.532;13.408;2022-07-29T06:08:57;18.50;63.20
8130;DHT22;4106;52.532;13.408;2022-07-29T06:11:24;18.70;62.90
8130;DHT22;4106;52.532;13.408;2022-07-29T06:13:51;18.90;61.30
8130;DHT22;4106;52.532;13.408;2022-07-29T06:16:19;19.10;60.00
8130;DHT22;4106;52.532;13.408;2022-07-29T06:18:46;19.30;60.40
8130;DHT22;4106;52.532;13.408;2022-07-29T06:21:13;19.70;59.20
8130;DHT22;4106;52.532;13.408;2022-07-29T06:23:40;20.10;58.80
8130;DHT22;4106;52.532;13.408;2022-07-29T06:26:07;20.50;58.30
8130;DHT22;4106;52.532;13.408;2022-07-29T06:28:35;20.70;56.90
8130;DHT22;4106;52.532;13.408;2022-07-29T06:31:02;20.60;57.20
8130;DHT22;4106;52.532;13.408;2022-07-29T06:33:29;20.70;57.00
8130;DHT22;4106;52.532;13.408;2022-07-29T06:35:57;20.60;56.40
8130;DHT22;4106;52.532;13.408;2022-07-29T06:38:25;20.60;56.30
8130;DHT22;4106;52.532;13.408;2022-07-29T06:40:53;20.60;56.20
8130;DHT22;4106;52.532;13.408;2022-07-29T06:43:27;20.60;56.30
8130;DHT22;4106;52.532;13.408;2022-07-29T06:45:53;20.60;56.40
8130;DHT22;4106;52.532;13.408;2022-07-29T06:48:21;20.60;56.10
8130;DHT22;4106;52.532;13.408;2022-07-29T06:50:49;20.70;56.30
8130;DHT22;4106;52.532;13.408;2022-07-29T06:53:16;20.60;56.30
8130;DHT22;4106;52.532;13.408;2022-07-29T06:55:43;20.70;56.30
8130;DHT22;4106;52.532;13.408;2022-07-29T06:58:10;20.80;55.80
8130;DHT22;4106;52.532;13.408;2022-07-29T07:00:37;20.80;56.10
8130;DHT22;4106;52.532;13.408;2022-07-29T07:03:05;20.80;55.90
8130;DHT22;4106;52.532;13.408;2022-07-29T07:05:32;20.90;55.80
8130;DHT22;4106;52.532;13.408;2022-07-29T07:07:59;20.90;55.70
8130;DHT22;4106;52.532;13.408;2022-07-29T07:10:26;20.90;55.70
8130;DHT22;4106;52.532;13.408;2022-07-29T07:12:54;20.90;55.70
8130;DHT22;4106;52.532;13.408;2022-07-29T07:15:21;21.00;55.30
8130;DHT22;4106;52.532;13.408;2022-07-29T07:17:48;21.20;55.20
8130;DHT22;4106;52.532;13.408;2022-07-29T07:20:17;21.30;54.80
8130;DHT22;4106;52.532;13.408;2022-07-29T07:22:43;21.40;54.80
8130;DHT22;4106;52.532;13.408;2022-07-29T07:25:12;21.60;54.30
8130;DHT22;4106;52.532;13.408;2022-07-29T07:27:39;21.60;54.30
8130;DHT22;4106;52.532;13.408;2022-07-29T07:30:07;21.70;53.50
8130;DHT22;4106;52.532;13.408;2022-07-29T07:32:34;21.70;53.50
8130;DHT22;4106;52.532;13.408;2022-07-29T07:35:02;21.80;53.70
8130;DHT22;4106;52.532;13.408;2022-07-29T07:37:28;21.80;53.00
8130;DHT22;4106;52.532;13.408;2022-07-29T07:39:56;22.10;52.70
8130;DHT22;4106;52.532;13.408;2022-07-29T07:42:24;22.30;52.50
8130;DHT22;4106;52.532;13.408;2022-07-29T07:44:52;22.60;52.20
8130;DHT22;4106;52.532;13.408;2022-07-29T07:47:19;22.60;52.30
8130;DHT22;4106;52.532;13.408;2022-07-29T07:49:47;22.70;51.80
8130;DHT22;4106;52.532;13.408;2022-07-29T07:52:15;22.80;51.30
8130;DHT22;4106;52.532;13.408;2022-07-29T07:54:41;22.80;51.40
8130;DHT22;4106;52.532;13.408;2022-07-29T07:57:08;22.90;51.50
8130;DHT22;4106;52.532;13.408;2022-07-29T07:59:35;23.00;51.10
8130;DHT22;4106;52.532;13.408;2022-07-29T08:02:03;23.10;50.30
8130;DHT22;4106;52.532;13.408;2022-07-29T08:04:30;23.30;51.10
8130;DHT22;4106;52.532;13.408;2022-07-29T08:06:57;23.60;50.20
8130;DHT22;4106;52.532;13.408;2022-07-29T08:09:25;23.80;49.30
8130;DHT22;4106;52.532;13.408;2022-07-29T08:11:52;23.90;48.50
8130;DHT22;4106;52.532;13.408;2022-07-29T08:14:19;23.90;48.40
8130;DHT22;4106;52.532;13.408;2022-07-29T08:16:46;24.00;47.70
8130;DHT22;4106;52.532;13.408;2022-07-29T08:19:14;24.10;48.20
8130;DHT22;4106;52.532;13.408;2022-07-29T08:21:42;24.00;47.40
8130;DHT22;4106;52.532;13.408;2022-07-29T08:24:10;24.10;47.30
8130;DHT22;4106;52.532;13.408;2022-07-29T08:26:43;24.00;47.20
8130;DHT22;4106;52.532;13.408;2022-07-29T08:29:11;24.00;47.70
8130;DHT22;4106;52.532;13.408;2022-07-29T08:31:39;24.00;47.90
8130;DHT22;4106;52.532;13.408;2022-07-29T08:34:06;24.00;48.30
8130;DHT22;4106;52.532;13.408;2022-07-29T08:36:34;24.00;47.90
8130;DHT22;4106;52.532;13.408;2022-07-29T08:39:01;24.00;48.40
8130;DHT22;4106;52.532;13.408;2022-07-29T08:41:28;24.00;47.20
8130;DHT22;4106;52.532;13.408;2022-07-29T08:43:55;24.00;47.30
8130;DHT22;4106;52.532;13.408;2022-07-29T08:46:22;24.10;47.00
8130;DHT22;4106;52.532;13.408;2022-07-29T08:48:50;24.10;46.80
8130;DHT22;4106;52.532;13.408;2022-07-29T08:51:18;24.10;47.00
8130;DHT22;4106;52.532;13.408;2022-07-29T08:53:45;24.20;46.50
8130;DHT22;4106;52.532;13.408;2022-07-29T08:56:12;24.20;45.60
8130;DHT22;4106;52.532;13.408;2022-07-29T08:58:39;24.00;46.60
8130;DHT22;4106;52.532;13.408;2022-07-29T09:01:06;23.80;46.00
8130;DHT22;4106;52.532;13.408;2022-07-29T09:03:34;23.60;46.90
8130;DHT22;4106;52.532;13.408;2022-07-29T09:06:01;23.50;45.90
8130;DHT22;4106;52.532;13.408;2022-07-29T09:08:28;23.40;46.00
8130;DHT22;4106;52.532;13.408;2022-07-29T09:10:56;23.40;47.00
8130;DHT22;4106;52.532;13.408;2022-07-29T09:13:24;23.40;47.10
8130;DHT22;4106;52.532;13.408;2022-07-29T09:15:52;23.60;46.60
8130;DHT22;4106;52.532;13.408;2022-07-29T09:20:59;23.80;46.70
8130;DHT22;4106;52.532;13.408;2022-07-29T09:23:33;24.40;46.90
8130;DHT22;4106;52.532;13.408;2022-07-29T09:26:05;24.30;46.80
8130;DHT22;4106;52.532;13.408;2022-07-29T09:28:29;24.60;46.10
8130;DHT22;4106;52.532;13.408;2022-07-29T09:30:58;24.70;45.90
8130;DHT22;4106;52.532;13.408;2022-07-29T09:33:31;24.70;45.00
8130;DHT22;4106;52.532;13.408;2022-07-29T09:35:58;24.70;45.70
8130;DHT22;4106;52.532;13.408;2022-07-29T09:38:25;24.70;44.60
8130;DHT22;4106;52.532;13.408;2022-07-29T09:40:57;24.80;44.20
8130;DHT22;4106;52.532;13.408;2022-07-29T09:43:24;24.90;44.10
8130;DHT22;4106;52.532;13.408;2022-07-29T09:45:51;25.00;43.60
8130;DHT22;4106;52.532;13.408;2022-07-29T09:48:20;25.10;43.10
8130;DHT22;4106;52.532;13.408;2022-07-29T09:50:47;25.30;43.20
8130;DHT22;4106;52.532;13.408;2022-07-29T09:53:29;25.30;43.00
8130;DHT22;4106;52.532;13.408;2022-07-29T09:55:51;25.50;42.80
8130;DHT22;4106;52.532;13.408;2022-07-29T09:58:19;25.50;43.80
8130;DHT22;4106;52.532;13.408;2022-07-29T10:00:47;25.60;42.30
8130;DHT22;4106;52.532;13.408;2022-07-29T10:03:14;25.70;41.50
8130;DHT22;4106;52.532;13.408;2022-07-29T10:05:42;25.60;41.50
8130;DHT22;4106;52.532;13.408;2022-07-29T10:08:09;25.80;41.50
8130;DHT22;4106;52.532;13.408;2022-07-29T10:10:37;26.00;41.10
8130;DHT22;4106;52.532;13.408;2022-07-29T10:13:05;26.10;41.50
8130;DHT22;4106;52.532;13.408;2022-07-29T10:15:32;26.20;41.00
8130;DHT22;4106;52.532;13.408;2022-07-29T10:17:59;26.20;40.90
8130;DHT22;4106;52.532;13.408;2022-07-29T10:20:27;26.20;40.00
8130;DHT22;4106;52.532;13.408;2022-07-29T10:22:54;26.20;39.50
8130;DHT22;4106;52.532;13.408;2022-07-29T10:25:22;26.20;39.50
8130;DHT22;4106;52.532;13.408;2022-07-29T10:27:49;26.40;38.90
8130;DHT22;4106;52.532;13.408;2022-07-29T10:30:16;26.60;38.20
8130;DHT22;4106;52.532;13.408;2022-07-29T10:35:53;26.80;38.10
8130;DHT22;4106;52.532;13.408;2022-07-29T10:41:17;27.20;37.30
8130;DHT22;4106;52.532;13.408;2022-07-29T10:43:45;27.40;38.40
8130;DHT22;4106;52.532;13.408;2022-07-29T10:46:12;27.80;38.50
8130;DHT22;4106;52.532;13.408;2022-07-29T10:51:18;28.20;38.10
8130;DHT22;4106;52.532;13.408;2022-07-29T10:53:47;28.30;38.00
8130;DHT22;4106;52.532;13.408;2022-07-29T10:56:23;28.50;37.30
8130;DHT22;4106;52.532;13.408;2022-07-29T11:01:28;28.80;37.10
8130;DHT22;4106;52.532;13.408;2022-07-29T11:03:55;29.00;37.10
8130;DHT22;4106;52.532;13.408;2022-07-29T11:06:22;29.00;36.10
8130;DHT22;4106;52.532;13.408;2022-07-29T11:09:14;28.80;35.90
8130;DHT22;4106;52.532;13.408;2022-07-29T11:11:34;28.70;35.90
8130;DHT22;4106;52.532;13.408;2022-07-29T11:14:01;28.60;36.00
8130;DHT22;4106;52.532;13.408;2022-07-29T11:16:57;28.30;36.40
8130;DHT22;4106;52.532;13.408;2022-07-29T11:21:50;27.70;36.60
8130;DHT22;4106;52.532;13.408;2022-07-29T11:24:26;27.50;37.90
8130;DHT22;4106;52.532;13.408;2022-07-29T11:27:06;27.40;37.70
8130;DHT22;4106;52.532;13.408;2022-07-29T11:29:32;27.40;38.20
8130;DHT22;4106;52.532;13.408;2022-07-29T11:32:10;27.40;38.00
8130;DHT22;4106;52.532;13.408;2022-07-29T11:34:36;27.40;38.10
8130;DHT22;4106;52.532;13.408;2022-07-29T11:37:20;27.30;37.40
8130;DHT22;4106;52.532;13.408;2022-07-29T11:40:09;27.40;38.00
8130;DHT22;4106;52.532;13.408;2022-07-29T11:42:44;27.50;38.40
8130;DHT22;4106;52.532;13.408;2022-07-29T11:45:12;27.60;38.80
8130;DHT22;4106;52.532;13.408;2022-07-29T11:47:46;27.60;38.10
8130;DHT22;4106;52.532;13.408;2022-07-29T11:50:09;27.60;38.00
8130;DHT22;4106;52.532;13.408;2022-07-29T11:52:37;27.70;38.00
8130;DHT22;4106;52.532;13.408;2022-07-29T11:55:05;27.70;38.10
8130;DHT22;4106;52.532;13.408;2022-07-29T11:57:32;27.70;38.10
8130;DHT22;4106;52.532;13.408;2022-07-29T12:00:00;27.70;38.50
8130;DHT22;4106;52.532;13.408;2022-07-29T12:02:37;27.70;38.40
8130;DHT22;4106;52.532;13.408;2022-07-29T12:04:55;27.70;38.60
8130;DHT22;4106;52.532;13.408;2022-07-29T12:07:30;27.70;38.80
8130;DHT22;4106;52.532;13.408;2022-07-29T12:09:57;27.80;38.70
8130;DHT22;4106;52.532;13.408;2022-07-29T12:12:24;27.80;39.30
8130;DHT22;4106;52.532;13.408;2022-07-29T12:14:53;27.80;39.20
8130;DHT22;4106;52.532;13.408;2022-07-29T12:17:33;27.90;39.50
8130;DHT22;4106;52.532;13.408;2022-07-29T12:20:02;27.90;39.50
8130;DHT22;4106;52.532;13.408;2022-07-29T12:22:30;28.00;39.80
8130;DHT22;4106;52.532;13.408;2022-07-29T12:25:02;28.20;39.90
8130;DHT22;4106;52.532;13.408;2022-07-29T12:27:29;28.50;39.80
8130;DHT22;4106;52.532;13.408;2022-07-29T12:29:57;28.70;39.50
8130;DHT22;4106;52.532;13.408;2022-07-29T12:32:30;29.10;39.40
8130;DHT22;4106;52.532;13.408;2022-07-29T12:34:52;29.00;39.40
8130;DHT22;4106;52.532;13.408;2022-07-29T12:37:19;29.60;39.50
8130;DHT22;4106;52.532;13.408;2022-07-29T12:39:46;30.00;38.80
8130;DHT22;4106;52.532;13.408;2022-07-29T12:42:14;30.20;38.50
8130;DHT22;4106;52.532;13.408;2022-07-29T12:44:44;30.30;38.10
8130;DHT22;4106;52.532;13.408;2022-07-29T12:47:11;30.70;38.00
8130;DHT22;4106;52.532;13.408;2022-07-29T12:49:38;31.10;37.70
8130;DHT22;4106;52.532;13.408;2022-07-29T12:52:30;31.40;36.40
8130;DHT22;4106;52.532;13.408;2022-07-29T12:54:56;31.50;36.40
8130;DHT22;4106;52.532;13.408;2022-07-29T12:57:23;31.70;36.70
8130;DHT22;4106;52.532;13.408;2022-07-29T13:00:00;31.90;36.30
8130;DHT22;4106;52.532;13.408;2022-07-29T13:02:26;32.10;36.30
8130;DHT22;4106;52.532;13.408;2022-07-29T13:04:57;32.00;36.00
8130;DHT22;4106;52.532;13.408;2022-07-29T13:07:27;32.00;36.00
8130;DHT22;4106;52.532;13.408;2022-07-29T13:09:53;32.30;35.70
8130;DHT22;4106;52.532;13.408;2022-07-29T13:12:21;32.80;35.30
8130;DHT22;4106;52.532;13.408;2022-07-29T13:14:48;33.30;34.80
8130;DHT22;4106;52.532;13.408;2022-07-29T13:17:16;33.70;34.30
8130;DHT22;4106;52.532;13.408;2022-07-29T13:19:45;34.40;34.10
8130;DHT22;4106;52.532;13.408;2022-07-29T13:22:12;35.00;33.50
8130;DHT22;4106;52.532;13.408;2022-07-29T13:24:45;35.90;32.90
8130;DHT22;4106;52.532;13.408;2022-07-29T13:27:13;36.30;32.00
8130;DHT22;4106;52.532;13.408;2022-07-29T13:29:39;36.80;31.10
8130;DHT22;4106;52.532;13.408;2022-07-29T13:32:06;37.10;30.90
8130;DHT22;4106;52.532;13.408;2022-07-29T13:34:33;37.70;30.80
8130;DHT22;4106;52.532;13.408;2022-07-29T13:37:01;38.20;30.00
8130;DHT22;4106;52.532;13.408;2022-07-29T13:39:29;39.50;29.00
8130;DHT22;4106;52.532;13.408;2022-07-29T13:41:57;40.60;28.60
8130;DHT22;4106;52.532;13.408;2022-07-29T13:44:24;40.50;28.50
8130;DHT22;4106;52.532;13.408;2022-07-29T13:46:52;41.60;28.00
8130;DHT22;4106;52.532;13.408;2022-07-29T13:49:20;42.00;27.20
8130;DHT22;4106;52.532;13.408;2022-07-29T13:51:48;44.00;26.50
8130;DHT22;4106;52.532;13.408;2022-07-29T13:54:16;47.40;25.90
8130;DHT22;4106;52.532;13.408;2022-07-29T13:56:44;50.30;24.50
8130;DHT22;4106;52.532;13.408;2022-07-29T13:59:11;50.20;24.50
8130;DHT22;4106;52.532;13.408;2022-07-29T14:01:38;51.70;23.70
8130;DHT22;4106;52.532;13.408;2022-07-29T14:04:05;53.10;23.40
8130;DHT22;4106;52.532;13.408;2022-07-29T14:06:32;54.10;23.00
8130;DHT22;4106;52.532;13.408;2022-07-29T14:08:59;54.00;22.30
8130;DHT22;4106;52.532;13.408;2022-07-29T14:11:27;53.90;22.00
8130;DHT22;4106;52.532;13.408;2022-07-29T14:13:54;54.50;22.40
8130;DHT22;4106;52.532;13.408;2022-07-29T14:16:21;54.40;21.80
8130;DHT22;4106;52.532;13.408;2022-07-29T14:18:48;53.80;21.90
8130;DHT22;4106;52.532;13.408;2022-07-29T14:21:15;54.50;22.10
8130;DHT22;4106;52.532;13.408;2022-07-29T14:23:43;52.10;21.70
8130;DHT22;4106;52.532;13.408;2022-07-29T14:26:10;50.40;22.70
8130;DHT22;4106;52.532;13.408;2022-07-29T14:28:37;52.00;22.50
8130;DHT22;4106;52.532;13.408;2022-07-29T14:31:05;50.70;21.70
8130;DHT22;4106;52.532;13.408;2022-07-29T14:33:33;45.40;23.00
8130;DHT22;4106;52.532;13.408;2022-07-29T14:36:01;45.90;24.10
8130;DHT22;4106;52.532;13.408;2022-07-29T14:38:28;45.90;24.10
8130;DHT22;4106;52.532;13.408;2022-07-29T14:40:56;46.00;23.10
8130;DHT22;4106;52.532;13.408;2022-07-29T14:43:23;45.90;23.10
8130;DHT22;4106;52.532;13.408;2022-07-29T14:45:51;41.60;24.30
8130;DHT22;4106;52.532;13.408;2022-07-29T14:48:18;38.70;26.30
8130;DHT22;4106;52.532;13.408;2022-07-29T14:50:45;37.10;27.10
8130;DHT22;4106;52.532;13.408;2022-07-29T14:53:12;36.80;27.90
8130;DHT22;4106;52.532;13.408;2022-07-29T14:55:40;36.30;28.50
8130;DHT22;4106;52.532;13.408;2022-07-29T14:58:07;35.70;28.40
8130;DHT22;4106;52.532;13.408;2022-07-29T15:00:34;35.20;28.70
8130;DHT22;4106;52.532;13.408;2022-07-29T15:03:01;34.60;28.90
8130;DHT22;4106;52.532;13.408;2022-07-29T15:05:29;34.10;29.60
8130;DHT22;4106;52.532;13.408;2022-07-29T15:07:56;33.70;29.80
8130;DHT22;4106;52.532;13.408;2022-07-29T15:10:23;33.50;29.50
8130;DHT22;4106;52.532;13.408;2022-07-29T15:12:50;33.20;30.10
8130;DHT22;4106;52.532;13.408;2022-07-29T15:15:18;32.90;30.00
8130;DHT22;4106;52.532;13.408;2022-07-29T15:17:46;32.60;30.50
8130;DHT22;4106;52.532;13.408;2022-07-29T15:20:14;32.50;30.80
8130;DHT22;4106;52.532;13.408;2022-07-29T15:22:42;32.30;30.60
8130;DHT22;4106;52.532;13.408;2022-07-29T15:25:09;32.40;30.70
8130;DHT22;4106;52.532;13.408;2022-07-29T15:27:36;32.20;30.90
8130;DHT22;4106;52.532;13.408;2022-07-29T15:30:05;31.80;31.50
8130;DHT22;4106;52.532;13.408;2022-07-29T15:32:32;31.80;31.00
8130;DHT22;4106;52.532;13.408;2022-07-29T15:35:00;31.30;31.80
8130;DHT22;4106;52.532;13.408;2022-07-29T15:37:27;31.20;31.70
8130;DHT22;4106;52.532;13.408;2022-07-29T15:39:54;31.00;31.80
8130;DHT22;4106;52.532;13.408;2022-07-29T15:42:22;31.10;32.00
8130;DHT22;4106;52.532;13.408;2022-07-29T15:44:49;31.30;31.80
8130;DHT22;4106;52.532;13.408;2022-07-29T15:47:16;31.00;32.20
8130;DHT22;4106;52.532;13.408;2022-07-29T15:49:43;30.80;32.30
8130;DHT22;4106;52.532;13.408;2022-07-29T15:52:10;30.60;32.50
8130;DHT22;4106;52.532;13.408;2022-07-29T15:54:38;30.10;33.20
8130;DHT22;4106;52.532;13.408;2022-07-29T15:57:09;29.90;33.50
8130;DHT22;4106;52.532;13.408;2022-07-29T15:59:37;29.60;33.60
8130;DHT22;4106;52.532;13.408;2022-07-29T16:02:05;29.50;34.30
8130;DHT22;4106;52.532;13.408;2022-07-29T16:04:32;29.40;33.70
8130;DHT22;4106;52.532;13.408;2022-07-29T16:06:59;29.50;34.30
8130;DHT22;4106;52.532;13.408;2022-07-29T16:09:27;29.30;34.20
8130;DHT22;4106;52.532;13.408;2022-07-29T16:11:54;29.20;34.00
8130;DHT22;4106;52.532;13.408;2022-07-29T16:14:21;29.30;34.30